createdAt,value
2023-01-07T00:02:04.276Z,9.48
2023-01-07T00:07:11.730Z,11.82
2023-01-07T00:12:17.981Z,31.08
2023-01-07T00:17:22.489Z,27.67
2023-01-07T00:22:27.041Z,14.02
2023-01-07T00:27:33.352Z,11.90
2023-01-07T00:32:52.370Z,15.27
2023-01-07T00:37:57.114Z,14.23
2023-01-07T00:43:05.207Z,11.55
2023-01-07T00:48:11.215Z,27.08
2023-01-07T00:53:15.923Z,17.73
2023-01-07T00:58:24.414Z,13.65
2023-01-07T01:03:31.780Z,16.77
2023-01-07T01:08:36.730Z,11.80
2023-01-07T01:13:43.520Z,22.50
2023-01-07T01:18:48.731Z,15.25
2023-01-07T01:23:53.289Z,28.17
2023-01-07T01:28:59.301Z,32.83
2023-01-07T01:34:04.243Z,22.65
2023-01-07T01:39:09.734Z,18.90
2023-01-07T01:44:47.439Z,18.90
2023-01-07T01:50:03.521Z,18.35
2023-01-07T01:55:13.352Z,26.45
2023-01-07T02:00:19.756Z,41.80
2023-01-07T02:05:35.091Z,13.43
2023-01-07T02:10:40.847Z,13.50
2023-01-07T02:15:57.565Z,14.43
2023-01-07T02:21:12.891Z,17.57
2023-01-07T02:26:57.615Z,12.17
2023-01-07T02:32:15.832Z,14.20
2023-01-07T02:37:26.981Z,14.02
2023-01-07T02:42:39.178Z,14.82
2023-01-07T02:47:51.125Z,14.32
2023-01-07T02:52:56.821Z,13.32
2023-01-07T02:58:30.173Z,13.82
2023-01-07T03:03:52.817Z,14.95
2023-01-07T03:09:06.077Z,15.63
2023-01-07T03:14:17.908Z,14.15
2023-01-07T03:19:31.680Z,17.65
2023-01-07T03:24:37.438Z,15.00
2023-01-07T03:29:41.930Z,10.00
2023-01-07T03:34:48.805Z,12.80
2023-01-07T03:39:54.428Z,15.55
2023-01-07T03:45:00.224Z,11.32
2023-01-07T03:50:10.320Z,12.13
2023-01-07T03:55:18.817Z,8.85
2023-01-07T04:00:25.549Z,10.20
2023-01-07T04:05:50.436Z,12.40
2023-01-07T04:10:56.083Z,12.00
2023-01-07T04:16:02.173Z,9.55
2023-01-07T04:21:08.494Z,11.90
2023-01-07T04:26:13.042Z,13.50
2023-01-07T04:36:24.704Z,12.02
2023-01-07T04:41:29.390Z,11.75
2023-01-07T04:46:34.851Z,31.38
2023-01-07T04:51:41.087Z,11.63
2023-01-07T04:56:45.857Z,8.25
2023-01-07T05:01:50.953Z,8.77
2023-01-07T05:06:56.995Z,8.18
2023-01-07T05:12:03.446Z,11.80
2023-01-07T05:17:08.551Z,17.80
2023-01-07T05:22:16.705Z,14.65
2023-01-07T05:27:21.500Z,16.23
2023-01-07T05:32:26.996Z,26.83
2023-01-07T05:37:33.164Z,14.25
2023-01-07T05:42:37.741Z,13.50
2023-01-07T05:47:43.965Z,37.22
2023-01-07T05:57:54.122Z,68.43
2023-01-07T06:02:58.604Z,22.25
2023-01-07T06:08:04.797Z,15.98
2023-01-07T06:13:09.304Z,12.43
2023-01-07T06:18:13.885Z,12.55
2023-01-07T06:23:20.108Z,20.77
2023-01-07T06:28:24.945Z,17.35
2023-01-07T06:33:33.385Z,38.03
2023-01-07T06:38:41.746Z,23.00
2023-01-07T06:43:46.223Z,22.00
2023-01-07T06:48:51.402Z,14.40
2023-01-07T06:54:00.805Z,11.57
2023-01-07T06:59:05.508Z,11.88
2023-01-07T07:04:12.409Z,73.55
2023-01-07T07:09:18.531Z,87.40
2023-01-07T07:14:23.002Z,88.80
2023-01-07T07:19:27.503Z,21.80
2023-01-07T07:24:34.983Z,30.65
2023-01-07T07:29:39.551Z,52.70
2023-01-07T07:34:43.897Z,76.63
2023-01-07T07:39:49.716Z,23.73
2023-01-07T07:44:54.215Z,45.22
2023-01-07T07:49:58.740Z,39.50
2023-01-07T07:55:20.478Z,99.70
2023-01-07T08:00:29.392Z,33.95
2023-01-07T08:05:34.695Z,24.87
2023-01-07T08:10:41.391Z,38.13
2023-01-07T08:15:45.885Z,50.92
2023-01-07T08:20:52.384Z,60.83
2023-01-07T08:26:01.124Z,28.30
2023-01-07T08:31:07.345Z,45.53
2023-01-07T08:36:22.573Z,50.95
2023-01-07T08:46:33.504Z,31.13
2023-01-07T08:51:38.193Z,32.63
2023-01-07T08:56:44.222Z,25.48
2023-01-07T09:01:48.788Z,28.67
2023-01-07T09:06:53.545Z,29.33
2023-01-07T09:11:59.357Z,32.45
2023-01-07T09:22:07.816Z,27.27
2023-01-07T09:27:13.572Z,24.38
2023-01-07T09:32:17.796Z,24.45
2023-01-07T09:37:22.884Z,20.65
2023-01-07T09:42:38.771Z,18.45
2023-01-07T09:47:46.226Z,16.38
2023-01-07T09:52:54.409Z,18.50
2023-01-07T09:58:00.701Z,31.83
2023-01-07T10:03:24.736Z,40.13
2023-01-07T10:08:39.861Z,38.60
2023-01-07T10:13:59.288Z,39.70
2023-01-07T10:19:09.529Z,32.13
2023-01-07T10:24:22.025Z,17.23
2023-01-07T10:29:33.767Z,17.30
2023-01-07T10:34:45.176Z,17.98
2023-01-07T10:39:57.878Z,19.38
2023-01-07T10:45:31.890Z,14.25
2023-01-07T10:50:53.455Z,61.75
2023-01-07T10:56:08.948Z,17.60
2023-01-07T11:01:22.951Z,36.75
2023-01-07T11:06:40.280Z,78.78
2023-01-07T11:11:47.266Z,25.42
2023-01-07T11:16:58.416Z,23.92
2023-01-07T11:22:03.255Z,25.52
2023-01-07T11:27:15.643Z,27.30
2023-01-07T11:32:26.236Z,32.20
2023-01-07T11:37:39.549Z,29.95
2023-01-07T11:42:49.985Z,28.02
2023-01-07T11:48:01.688Z,29.70
2023-01-07T11:53:23.519Z,25.25
2023-01-07T11:58:31.029Z,37.15
2023-01-07T12:03:38.289Z,32.38
2023-01-07T12:08:50.996Z,26.30
2023-01-07T12:13:55.900Z,25.27
2023-01-07T12:19:14.908Z,23.52
2023-01-07T12:25:00.284Z,28.63
2023-01-07T12:30:23.770Z,24.35
2023-01-07T12:35:32.578Z,21.05
2023-01-07T12:40:42.467Z,13.32
2023-01-07T12:45:52.677Z,13.75
2023-01-07T12:51:00.766Z,16.08
2023-01-07T12:56:12.384Z,18.73
2023-01-07T13:01:25.490Z,18.05
2023-01-07T13:06:42.936Z,20.00
2023-01-07T13:12:40.582Z,19.25
2023-01-07T13:17:35.931Z,17.50
2023-01-07T13:22:46.474Z,18.50
2023-01-07T13:28:20.658Z,15.55
2023-01-07T13:33:35.147Z,14.48
2023-01-07T13:39:14.018Z,15.57
2023-01-07T13:44:49.771Z,18.15
2023-01-07T13:50:00.522Z,22.92
2023-01-07T13:55:32.578Z,22.17
2023-01-07T14:01:05.208Z,23.23
2023-01-07T14:06:44.125Z,22.92
2023-01-07T14:12:15.802Z,21.60
2023-01-07T14:17:32.507Z,29.58
2023-01-07T14:28:20.818Z,21.55
2023-01-07T14:33:28.249Z,22.20
2023-01-07T14:39:00.992Z,22.95
2023-01-07T14:44:37.110Z,20.25
2023-01-07T14:50:09.916Z,15.82
2023-01-07T14:55:40.117Z,21.05
2023-01-07T15:01:22.083Z,20.88
2023-01-07T15:06:30.268Z,19.10
2023-01-07T15:11:53.603Z,19.75
2023-01-07T15:16:58.702Z,21.67
2023-01-07T15:22:13.464Z,26.58
2023-01-07T15:27:29.790Z,24.75
2023-01-07T15:32:45.571Z,28.48
2023-01-07T15:37:52.883Z,26.95
2023-01-07T15:42:59.449Z,27.50
2023-01-07T15:48:09.189Z,29.63
2023-01-07T15:53:23.634Z,32.75
2023-01-07T15:58:36.693Z,29.52
2023-01-07T16:03:44.705Z,42.33
2023-01-07T16:08:51.926Z,43.55
2023-01-07T16:13:59.890Z,59.30
2023-01-07T16:19:08.644Z,50.10
2023-01-07T16:24:17.653Z,51.90
2023-01-07T16:29:27.500Z,43.20
2023-01-07T16:34:59.927Z,45.25
2023-01-07T16:40:18.102Z,40.47
2023-01-07T16:45:29.072Z,42.40
2023-01-07T16:50:40.495Z,40.85
2023-01-07T16:55:51.632Z,38.67
2023-01-07T17:01:01.829Z,39.03
2023-01-07T17:06:08.620Z,40.63
2023-01-07T17:11:22.845Z,46.35
2023-01-07T17:16:30.494Z,50.47
2023-01-07T17:21:43.025Z,44.20
2023-01-07T17:26:51.860Z,45.40
2023-01-07T17:31:56.937Z,48.42
2023-01-07T17:37:01.903Z,52.50
2023-01-07T17:42:39.894Z,50.95
2023-01-07T17:48:03.246Z,45.53
2023-01-07T17:53:14.909Z,48.33
2023-01-07T17:58:27.765Z,43.20
2023-01-07T18:03:40.053Z,48.38
2023-01-07T18:08:50.714Z,41.60
2023-01-07T18:14:11.109Z,43.15
2023-01-07T18:19:36.244Z,44.40
2023-01-07T18:25:19.001Z,40.92
2023-01-07T18:30:38.554Z,45.08
2023-01-07T18:35:43.631Z,45.47
2023-01-07T18:40:57.713Z,40.83
2023-01-07T18:46:19.970Z,42.17
2023-01-07T18:51:34.829Z,41.08
2023-01-07T18:57:05.236Z,37.90
2023-01-07T19:02:22.659Z,37.88
2023-01-07T19:08:03.048Z,36.45
2023-01-07T19:13:28.934Z,37.00
2023-01-07T19:19:07.015Z,33.60
2023-01-07T19:24:34.813Z,33.58
2023-01-07T19:29:49.967Z,32.53
2023-01-07T19:35:14.869Z,37.72
2023-01-07T19:45:24.435Z,38.25
2023-01-07T19:50:30.328Z,36.13
2023-01-07T20:00:39.051Z,47.47
2023-01-07T20:05:45.250Z,37.97
2023-01-07T20:10:57.588Z,39.28
2023-01-07T20:16:06.237Z,41.58
2023-01-07T20:21:12.889Z,32.97
2023-01-07T20:26:19.144Z,29.77
2023-01-07T20:31:27.349Z,27.80
2023-01-07T20:36:34.058Z,33.22
2023-01-07T20:41:39.209Z,29.60
2023-01-07T20:46:44.075Z,29.00
2023-01-07T20:51:50.097Z,27.55
2023-01-07T20:56:54.567Z,32.47
2023-01-07T21:01:59.182Z,31.52
2023-01-07T21:07:05.349Z,34.72
2023-01-07T21:12:10.030Z,35.08
2023-01-07T21:17:16.136Z,29.55
2023-01-07T21:22:21.997Z,32.15
2023-01-07T21:27:26.640Z,34.25
2023-01-07T21:32:31.123Z,27.58
2023-01-07T21:37:37.545Z,30.77
2023-01-07T21:42:41.931Z,31.48
2023-01-07T21:47:46.424Z,30.40
2023-01-07T21:52:53.431Z,26.40
2023-01-07T21:57:58.124Z,30.23
2023-01-07T22:03:02.654Z,32.65
2023-01-07T22:08:10.577Z,25.95
2023-01-07T22:13:15.065Z,24.45
2023-01-07T22:18:20.702Z,23.85
2023-01-07T22:23:26.999Z,27.13
2023-01-07T22:28:33.672Z,23.08
2023-01-07T22:33:38.154Z,22.20
2023-01-07T22:38:44.381Z,16.30
2023-01-07T22:44:55.037Z,16.73
2023-01-07T22:50:02.946Z,16.27
2023-01-07T22:55:09.862Z,18.33
2023-01-07T23:00:18.648Z,12.80
2023-01-07T23:05:25.752Z,17.15
2023-01-07T23:10:32.347Z,17.13
2023-01-07T23:15:38.307Z,15.73
2023-01-07T23:20:44.216Z,17.20
2023-01-07T23:25:52.109Z,13.52
2023-01-07T23:30:56.517Z,16.67
2023-01-07T23:36:05.050Z,18.40
2023-01-07T23:41:12.749Z,12.93
2023-01-07T23:46:18.228Z,13.45
2023-01-07T23:56:30.162Z,14.57
